This is the latest recevied weather packets stored in our database for station/object DG2MCM-11. If no packets are shown the sender has not sent any weather packets the latest 1 day(s).
| Time | Temp. | Humidity | Pressure | Rain* | Wind** | Luminosity | Snow |
|---|---|---|---|---|---|---|---|
| 1777966680 | 16.11° C | 56% | 1008.8 hPa | 0 mm | 0 m/s | - | - |
| 1777966079 | 15.56° C | 58% | 1008.8 hPa | 0 mm | 0 m/s | - | - |
| 1777965477 | 14.44° C | 61% | 1009.2 hPa | 0 mm | 0 m/s | - | - |
| 1777964875 | 15° C | 59% | 1009.2 hPa | 0 mm | 0 m/s | - | - |
| 1777964274 | 12.78° C | 70% | 1009.9 hPa | 0 mm | 0 m/s | - | - |
| 1777963672 | 13.89° C | 64% | 1009.7 hPa | 0 mm | 0 m/s | - | - |
| 1777963070 | 11.67° C | 71% | 1010.4 hPa | 0 mm | 0 m/s | - | - |
| 1777961868 | 10° C | 77% | 1011.2 hPa | 0 mm | 0 m/s | - | - |
| 1777961326 | 8.89° C | 80% | 1011.5 hPa | 0 mm | 0 m/s | - | - |
| 1777960722 | 7.78° C | 83% | 1012 hPa | 0 mm | 0 m/s | - | - |
| 1777960120 | 7.78° C | 83% | 1011.8 hPa | 0 mm | 0 m/s | - | - |
| 1777959519 | 8.33° C | 84% | 1011.7 hPa | 0 mm | 0 m/s | - | - |
| 1777958918 | 8.33° C | 84% | 1011.7 hPa | 0 mm | 0 m/s | - | - |
| 1777958315 | 7.78° C | 86% | 1011.8 hPa | 0 mm | 0 m/s | - | - |
| 1777957714 | 7.22° C | 86% | 1011.9 hPa | 0 mm | 0 m/s | - | - |
| 1777957112 | 7.22° C | 87% | 1012 hPa | 0 mm | 0 m/s | - | - |
| 1777956510 | 6.67° C | 88% | 1012.2 hPa | 0 mm | 0 m/s | - | - |
| 1777955908 | 6.11° C | 90% | 1012.3 hPa | 0 mm | 0 m/s | - | - |
| 1777954103 | 5.56° C | 90% | 1012.6 hPa | 0 mm | 0 m/s | - | - |
| 1777953501 | 5.56° C | 91% | 1012.8 hPa | 0 mm | 0 m/s | - | - |
| 1777952900 | 5.56° C | 90% | 1012.7 hPa | 0 mm | 0 m/s | - | - |
| 1777952298 | 5.56° C | 91% | 1012.8 hPa | 0 mm | 0 m/s | - | - |
| 1777951697 | 5.56° C | 92% | 1012.9 hPa | 0 mm | 0 m/s | - | - |
| 1777951095 | 6.11° C | 91% | 1012.8 hPa | 0 mm | 0 m/s | - | - |
| 1777950493 | 6.11° C | 91% | 1012.9 hPa | 0 mm | 0 m/s | - | - |
* Rain latest hour (hover to see other rain measurements)
** Current wind speed in m/s (hover to see current wind gust speed)